Time;durP1;ratioP1;P1;durP2;ratioP2;P2;SDS_P1;SDS_P2;PMS_P1;PMS_P2;Temp;Humidity;BMP_temperature;BMP_pressure;BME280_temperature;BME280_humidity;BME280_pressure;Samples;Min_cycle;Max_cycle;Signal;HPM_P1;HPM_P2
2021/07/03 00:00:08;;;;;;;7.00;6.40;;;17.50;99.90;;;;;;5157774;27;20586;-84
2021/07/03 00:02:57;;;;;;;6.73;6.13;;;17.50;99.90;;;;;;5166305;27;20187;-86
2021/07/03 00:05:26;;;;;;;6.47;5.97;;;17.50;99.90;;;;;;5174181;27;20199;-86
2021/07/03 00:07:54;;;;;;;6.93;6.27;;;17.50;99.90;;;;;;5168121;27;20212;-86
2021/07/03 00:10:25;;;;;;;6.90;6.20;;;17.50;99.90;;;;;;5163837;27;20202;-87
2021/07/03 00:12:54;;;;;;;6.70;6.20;;;17.50;99.90;;;;;;5165339;27;20193;-87
2021/07/03 00:15:23;;;;;;;6.80;6.20;;;17.50;99.90;;;;;;5170381;27;20198;-87
2021/07/03 00:17:54;;;;;;;6.87;6.37;;;17.50;99.90;;;;;;5167859;27;20194;-84
2021/07/03 00:20:24;;;;;;;7.00;6.40;;;17.50;99.90;;;;;;5153704;27;20179;-87
2021/07/03 00:22:53;;;;;;;6.33;5.83;;;17.60;99.90;;;;;;5156309;27;20266;-83
2021/07/03 00:25:24;;;;;;;6.13;5.63;;;17.50;99.90;;;;;;5153502;27;20474;-85
2021/07/03 00:27:52;;;;;;;6.60;6.10;;;17.40;99.90;;;;;;5158045;27;20202;-85
2021/07/03 00:30:21;;;;;;;6.70;6.10;;;17.50;99.90;;;;;;5165014;27;20206;-86
2021/07/03 00:32:50;;;;;;;6.30;5.70;;;17.50;99.90;;;;;;5175184;27;20199;-86
2021/07/03 00:35:19;;;;;;;7.97;7.10;;;17.50;99.90;;;;;;5149558;27;20217;-82
2021/07/03 00:37:48;;;;;;;7.13;6.53;;;17.40;99.90;;;;;;5142435;27;20210;-86
2021/07/03 00:40:17;;;;;;;8.70;7.13;;;17.40;99.90;;;;;;5144231;27;20202;-85
2021/07/03 00:42:47;;;;;;;8.73;7.83;;;17.30;99.90;;;;;;5146973;27;20245;-86
2021/07/03 00:45:15;;;;;;;8.03;7.20;;;17.20;99.90;;;;;;5153611;27;20190;-84
2021/07/03 00:47:44;;;;;;;8.83;8.03;;;17.20;99.90;;;;;;5146281;27;20202;-84
2021/07/03 00:50:13;;;;;;;8.27;7.47;;;17.10;99.90;;;;;;5143667;27;20666;-83
2021/07/03 00:52:44;;;;;;;8.37;7.53;;;17.10;99.90;;;;;;5141744;27;20814;-83
2021/07/03 00:55:13;;;;;;;8.77;7.17;;;17.10;99.90;;;;;;5147317;27;20223;-84
2021/07/03 00:57:43;;;;;;;9.07;8.17;;;17.10;99.90;;;;;;5146695;27;20202;-84
2021/07/03 01:00:16;;;;;;;8.37;7.37;;;17.10;99.90;;;;;;5149873;27;20230;-83
2021/07/03 01:02:44;;;;;;;9.10;8.27;;;17.10;99.90;;;;;;5157864;27;20212;-83
2021/07/03 01:05:14;;;;;;;8.73;7.93;;;17.10;99.90;;;;;;5153529;27;20199;-83
2021/07/03 01:07:43;;;;;;;10.50;9.50;;;17.10;99.90;;;;;;5177922;27;20206;-85
2021/07/03 01:10:20;;;;;;;9.07;8.27;;;17.10;99.90;;;;;;5168025;27;20473;-84
2021/07/03 01:12:48;;;;;;;8.97;8.07;;;17.10;99.90;;;;;;5173043;27;20257;-84
2021/07/03 01:15:19;;;;;;;8.77;7.97;;;17.10;99.90;;;;;;5165696;27;20231;-81
2021/07/03 01:17:48;;;;;;;9.43;8.03;;;17.00;99.90;;;;;;5159766;27;20194;-86
2021/07/03 01:20:18;;;;;;;9.10;8.07;;;17.00;99.90;;;;;;5174179;27;20262;-86
2021/07/03 01:22:50;;;;;;;8.60;7.43;;;17.00;99.90;;;;;;5168903;27;20209;-85
2021/07/03 01:25:18;;;;;;;8.50;7.30;;;17.00;99.90;;;;;;5168860;27;20261;-84
2021/07/03 01:27:58;;;;;;;7.87;7.20;;;17.00;99.90;;;;;;5158160;27;20250;-85
2021/07/03 01:30:28;;;;;;;7.83;7.13;;;17.10;99.90;;;;;;5150141;27;20198;-87
2021/07/03 01:32:57;;;;;;;8.77;7.87;;;17.00;99.90;;;;;;5148434;27;20194;-86
2021/07/03 01:35:28;;;;;;;7.50;6.80;;;17.00;99.90;;;;;;5154435;27;21073;-85
2021/07/03 01:37:59;;;;;;;8.77;7.17;;;17.00;99.90;;;;;;5154705;27;20202;-85
2021/07/03 01:40:28;;;;;;;8.40;7.60;;;17.00;99.90;;;;;;5160709;27;20693;-85
2021/07/03 01:42:57;;;;;;;9.53;8.27;;;17.00;99.90;;;;;;5172333;27;20189;-86
2021/07/03 01:45:26;;;;;;;9.50;7.83;;;17.10;99.90;;;;;;5180725;27;20436;-85
2021/07/03 01:47:55;;;;;;;7.97;7.17;;;17.00;99.90;;;;;;5174365;27;20208;-84
2021/07/03 01:50:24;;;;;;;9.33;7.80;;;17.00;99.90;;;;;;5146817;27;20567;-84
2021/07/03 01:52:53;;;;;;;10.13;7.67;;;17.10;99.90;;;;;;5146925;27;20209;-84
2021/07/03 01:55:23;;;;;;;9.00;7.30;;;17.00;99.90;;;;;;5144961;27;20226;-84
2021/07/03 01:57:52;;;;;;;14.17;11.80;;;17.00;99.90;;;;;;5158374;27;20209;-83
2021/07/03 02:00:21;;;;;;;7.80;7.00;;;17.10;99.90;;;;;;5149937;27;20216;-85
2021/07/03 02:02:50;;;;;;;8.23;7.43;;;17.00;99.90;;;;;;5148487;27;20247;-84
2021/07/03 02:05:20;;;;;;;8.63;7.73;;;16.90;99.90;;;;;;5150376;27;20227;-83
2021/07/03 02:07:49;;;;;;;8.70;7.80;;;17.00;99.90;;;;;;5154283;27;20207;-85
2021/07/03 02:10:18;;;;;;;8.17;7.47;;;17.00;99.90;;;;;;5150194;27;20270;-89
2021/07/03 02:12:48;;;;;;;10.03;9.00;;;17.00;99.90;;;;;;5148562;27;20198;-85
2021/07/03 02:15:17;;;;;;;8.50;7.70;;;17.00;99.90;;;;;;5161355;27;20314;-85
2021/07/03 02:17:46;;;;;;;9.17;8.20;;;17.00;99.90;;;;;;5157446;27;20205;-85
2021/07/03 02:20:15;;;;;;;8.63;7.83;;;17.00;99.90;;;;;;5153192;27;20222;-87
2021/07/03 02:22:44;;;;;;;8.90;8.03;;;17.10;99.90;;;;;;5151037;27;20203;-85
2021/07/03 02:25:13;;;;;;;8.53;7.73;;;17.10;99.90;;;;;;5175442;27;20203;-85
2021/07/03 02:27:42;;;;;;;9.00;8.10;;;17.10;99.90;;;;;;5146226;27;20597;-84
2021/07/03 02:30:15;;;;;;;12.07;8.57;;;17.00;99.90;;;;;;5154799;27;20210;-86
2021/07/03 02:32:44;;;;;;;9.07;8.17;;;17.10;99.90;;;;;;5167698;27;20202;-84
2021/07/03 02:35:15;;;;;;;11.43;8.33;;;17.10;99.90;;;;;;5162654;27;20234;-85
2021/07/03 02:37:45;;;;;;;10.97;8.50;;;17.00;99.90;;;;;;5159506;27;20237;-83
2021/07/03 02:40:16;;;;;;;9.07;7.90;;;17.00;99.90;;;;;;5154468;27;20262;-86
2021/07/03 02:42:46;;;;;;;13.20;7.93;;;17.00;99.90;;;;;;5147747;27;20206;-85
2021/07/03 02:45:18;;;;;;;10.17;7.73;;;17.10;99.90;;;;;;5146530;27;20202;-86
2021/07/03 02:47:47;;;;;;;8.63;7.73;;;17.00;99.90;;;;;;5142796;27;20225;-85
2021/07/03 02:50:17;;;;;;;8.77;7.87;;;17.00;99.90;;;;;;5143708;27;20274;-85
2021/07/03 02:52:46;;;;;;;9.77;8.33;;;17.00;99.90;;;;;;5153503;27;20881;-85
2021/07/03 02:55:15;;;;;;;8.37;7.47;;;17.00;99.90;;;;;;5147787;27;20763;-85
2021/07/03 02:57:44;;;;;;;8.33;7.47;;;17.10;99.90;;;;;;5148321;27;20327;-84
2021/07/03 03:00:15;;;;;;;7.93;7.20;;;17.10;99.90;;;;;;5147774;27;20622;-85
2021/07/03 03:02:46;;;;;;;8.60;7.70;;;17.10;99.90;;;;;;5151879;27;20198;-86
2021/07/03 03:05:16;;;;;;;8.23;7.40;;;17.10;99.90;;;;;;5169531;27;20213;-86
2021/07/03 03:07:45;;;;;;;8.90;7.93;;;17.00;99.90;;;;;;5164440;27;20289;-85
2021/07/03 03:10:16;;;;;;;9.10;8.20;;;17.00;99.90;;;;;;5142649;27;20201;-87
2021/07/03 03:12:45;;;;;;;10.07;8.80;;;17.00;99.90;;;;;;5166948;27;20194;-84
2021/07/03 03:15:15;;;;;;;11.20;9.40;;;17.10;99.90;;;;;;5168408;27;20224;-86
2021/07/03 03:17:46;;;;;;;11.83;9.53;;;17.00;99.90;;;;;;5153558;27;20203;-84
2021/07/03 03:20:15;;;;;;;13.27;10.90;;;17.10;99.90;;;;;;5146523;27;20537;-86
2021/07/03 03:22:44;;;;;;;15.33;11.77;;;17.10;99.90;;;;;;5148087;27;20251;-85
2021/07/03 03:25:13;;;;;;;14.60;12.27;;;17.10;99.90;;;;;;5144198;27;20203;-84
2021/07/03 03:27:41;;;;;;;14.83;12.57;;;17.00;99.90;;;;;;5148549;27;20210;-83
2021/07/03 03:30:11;;;;;;;14.57;12.83;;;17.10;99.90;;;;;;5151386;27;20206;-88
2021/07/03 03:32:41;;;;;;;15.33;13.07;;;17.10;99.90;;;;;;5150827;27;20563;-85
2021/07/03 03:35:13;;;;;;;17.60;14.47;;;17.00;99.90;;;;;;5147916;27;20754;-87
2021/07/03 03:37:42;;;;;;;17.23;14.37;;;17.10;99.90;;;;;;5155430;27;20249;-82
2021/07/03 03:40:11;;;;;;;17.87;14.67;;;17.10;99.90;;;;;;5166378;27;20205;-84
2021/07/03 03:42:40;;;;;;;18.27;15.10;;;17.10;99.90;;;;;;5158902;27;20545;-85
2021/07/03 03:45:11;;;;;;;19.37;16.73;;;17.10;99.90;;;;;;5152950;27;20190;-84
2021/07/03 03:47:39;;;;;;;21.30;16.83;;;17.20;99.90;;;;;;5142255;27;20198;-85
2021/07/03 03:50:10;;;;;;;18.03;14.37;;;17.20;99.90;;;;;;5146930;27;20213;-85
2021/07/03 03:52:40;;;;;;;19.17;16.60;;;17.20;99.90;;;;;;5152205;27;20231;-84
2021/07/03 03:55:13;;;;;;;17.47;14.20;;;17.20;99.90;;;;;;5150087;27;20248;-84
2021/07/03 03:57:42;;;;;;;17.37;15.43;;;17.20;99.90;;;;;;5156525;27;20232;-83
2021/07/03 04:00:12;;;;;;;18.70;15.73;;;17.30;99.90;;;;;;5164220;27;20818;-83
2021/07/03 04:02:40;;;;;;;16.80;14.33;;;17.30;99.90;;;;;;5154112;27;20711;-84
2021/07/03 04:05:11;;;;;;;19.30;15.43;;;17.30;99.90;;;;;;5171303;27;20190;-85
2021/07/03 04:07:42;;;;;;;16.17;13.90;;;17.30;99.90;;;;;;5167607;27;20187;-83
2021/07/03 04:10:13;;;;;;;16.47;14.67;;;17.40;99.90;;;;;;5168067;27;20202;-86
2021/07/03 04:12:43;;;;;;;15.87;13.27;;;17.40;99.90;;;;;;5146232;27;20293;-85
2021/07/03 04:15:14;;;;;;;15.63;11.50;;;17.40;99.90;;;;;;5148401;27;20237;-84
2021/07/03 04:17:43;;;;;;;15.10;13.33;;;17.40;99.90;;;;;;5143422;27;20632;-84
2021/07/03 04:20:13;;;;;;;17.13;13.03;;;17.40;99.90;;;;;;5154570;27;20198;-85
2021/07/03 04:22:43;;;;;;;16.70;12.43;;;17.50;99.90;;;;;;5171935;27;20195;-83
2021/07/03 04:25:15;;;;;;;20.93;15.30;;;17.50;99.90;;;;;;5160533;27;20202;-83
2021/07/03 04:27:44;;;;;;;16.40;14.47;;;17.50;99.90;;;;;;5153564;27;20214;-84
2021/07/03 04:30:14;;;;;;;19.53;13.90;;;17.60;99.90;;;;;;5146592;27;20270;-83
2021/07/03 04:32:43;;;;;;;25.10;19.17;;;17.60;99.90;;;;;;5148152;27;20255;-83
2021/07/03 04:35:13;;;;;;;18.57;14.20;;;17.70;99.90;;;;;;5159198;27;20209;-85
2021/07/03 04:37:43;;;;;;;15.83;14.13;;;17.70;99.90;;;;;;5148363;27;20206;-84
2021/07/03 04:40:12;;;;;;;18.23;14.87;;;17.70;99.90;;;;;;5149827;27;20519;-86
2021/07/03 04:42:46;;;;;;;17.60;15.33;;;17.70;99.90;;;;;;5146861;27;20279;-85
2021/07/03 04:45:14;;;;;;;14.77;10.23;;;17.70;99.90;;;;;;5153144;27;20226;-85
2021/07/03 04:47:45;;;;;;;16.73;13.53;;;17.70;99.90;;;;;;5161090;27;20210;-83
2021/07/03 04:50:14;;;;;;;19.00;15.53;;;17.70;99.90;;;;;;5161654;27;20278;-86
2021/07/03 04:52:46;;;;;;;18.67;16.17;;;17.70;99.90;;;;;;5147169;27;20214;-83
2021/07/03 04:55:15;;;;;;;19.20;16.57;;;17.80;99.90;;;;;;5161046;27;20381;-86
2021/07/03 04:57:44;;;;;;;18.83;16.60;;;17.80;99.90;;;;;;5151524;27;20240;-84
2021/07/03 05:00:14;;;;;;;17.67;15.40;;;17.70;99.90;;;;;;5159530;27;20203;-86
2021/07/03 05:02:42;;;;;;;11.97;9.83;;;17.80;99.90;;;;;;5160655;27;20207;-86
2021/07/03 05:05:12;;;;;;;16.70;13.73;;;17.70;99.90;;;;;;5165785;27;20206;-85
2021/07/03 05:07:45;;;;;;;16.20;13.17;;;17.80;99.90;;;;;;5158176;27;20892;-86
2021/07/03 05:10:15;;;;;;;12.67;11.37;;;17.80;99.90;;;;;;5162091;27;20209;-84
2021/07/03 05:12:44;;;;;;;14.60;11.80;;;17.70;99.90;;;;;;5158231;27;20235;-84
2021/07/03 05:15:13;;;;;;;13.23;11.10;;;17.70;99.90;;;;;;5160612;27;20195;-85
2021/07/03 05:17:42;;;;;;;11.97;9.33;;;17.60;99.90;;;;;;5157882;27;20253;-85
2021/07/03 05:20:12;;;;;;;11.63;9.70;;;17.60;99.90;;;;;;5163913;27;20192;-83
2021/07/03 05:22:41;;;;;;;11.13;9.10;;;17.60;99.90;;;;;;5165863;27;20533;-83
2021/07/03 05:25:13;;;;;;;12.03;10.40;;;17.50;99.90;;;;;;5177082;27;20187;-85
2021/07/03 05:27:41;;;;;;;12.83;9.23;;;17.50;99.90;;;;;;5173763;27;20253;-86
2021/07/03 05:30:11;;;;;;;13.67;10.07;;;17.50;99.90;;;;;;5182371;27;20243;-85
2021/07/03 05:32:40;;;;;;;11.43;8.37;;;17.50;99.90;;;;;;5164260;27;20545;-85
2021/07/03 05:35:11;;;;;;;11.07;9.67;;;17.50;99.90;;;;;;5177400;27;20198;-85
2021/07/03 05:37:40;;;;;;;10.53;9.47;;;17.50;99.90;;;;;;5170091;27;20422;-84
2021/07/03 05:40:12;;;;;;;10.03;8.63;;;17.50;99.90;;;;;;5167375;27;20202;-85
2021/07/03 05:42:41;;;;;;;10.80;8.97;;;17.50;99.90;;;;;;5163251;27;20191;-85
2021/07/03 05:45:14;;;;;;;13.50;8.83;;;17.50;99.90;;;;;;5156948;27;20241;-85
2021/07/03 05:47:49;;;;;;;10.10;8.37;;;17.50;99.90;;;;;;5163471;27;20229;-84
2021/07/03 05:50:20;;;;;;;9.07;8.17;;;17.50;99.90;;;;;;5160613;27;20407;-88
2021/07/03 05:52:50;;;;;;;9.53;8.30;;;17.60;99.90;;;;;;5160617;27;20211;-86
2021/07/03 05:55:21;;;;;;;10.97;8.87;;;17.50;99.90;;;;;;5156913;27;20203;-85
2021/07/03 05:57:50;;;;;;;15.10;10.37;;;17.60;99.90;;;;;;5152758;27;20238;-83
2021/07/03 06:00:20;;;;;;;12.40;11.17;;;17.60;99.90;;;;;;5155137;27;20230;-84
2021/07/03 06:02:49;;;;;;;13.73;12.30;;;17.50;99.90;;;;;;5160661;27;20215;-86
2021/07/03 06:05:18;;;;;;;17.07;12.83;;;17.60;99.90;;;;;;5181236;27;20197;-84
2021/07/03 06:07:46;;;;;;;17.03;12.37;;;17.60;99.90;;;;;;5171115;27;20190;-84
2021/07/03 06:10:15;;;;;;;17.03;11.77;;;17.70;99.90;;;;;;5171766;27;20242;-85
2021/07/03 06:12:46;;;;;;;14.10;12.23;;;17.60;99.90;;;;;;5174303;27;20193;-84
2021/07/03 06:15:16;;;;;;;16.70;13.00;;;17.70;99.90;;;;;;5166082;27;20233;-84
2021/07/03 06:17:44;;;;;;;16.53;13.00;;;17.70;99.90;;;;;;5172190;27;20210;-84
2021/07/03 06:20:14;;;;;;;14.10;12.63;;;17.70;99.90;;;;;;5176102;27;20187;-85
2021/07/03 06:22:46;;;;;;;18.10;12.20;;;17.70;99.90;;;;;;5643399;22;21794;-84
2021/07/03 06:25:20;;;;;;;15.40;13.17;;;17.70;99.90;;;;;;5112351;28;20512;-85
2021/07/03 06:27:50;;;;;;;15.23;12.87;;;17.70;99.90;;;;;;5104038;28;20218;-84
2021/07/03 06:30:19;;;;;;;19.53;13.93;;;17.80;99.90;;;;;;5077498;28;20517;-84
2021/07/03 06:32:48;;;;;;;15.30;12.33;;;17.80;99.90;;;;;;5092811;28;20213;-86
2021/07/03 06:35:17;;;;;;;15.77;13.13;;;17.90;99.90;;;;;;5082590;28;20215;-83
2021/07/03 06:37:46;;;;;;;15.90;13.67;;;17.90;99.90;;;;;;5087068;28;20333;-83
2021/07/03 06:40:15;;;;;;;17.10;13.73;;;18.00;99.90;;;;;;5092287;28;20212;-83
2021/07/03 06:42:43;;;;;;;17.43;13.70;;;18.00;99.90;;;;;;5091978;28;20695;-84
2021/07/03 06:45:15;;;;;;;16.63;13.60;;;18.10;99.90;;;;;;5094851;28;20196;-86
2021/07/03 06:47:46;;;;;;;16.93;14.53;;;18.10;99.90;;;;;;5084562;28;20200;-84
2021/07/03 06:50:15;;;;;;;17.57;13.60;;;18.20;99.90;;;;;;5121407;27;20360;-84
2021/07/03 06:52:43;;;;;;;17.70;14.13;;;18.20;99.90;;;;;;5112177;27;20400;-83
2021/07/03 06:55:13;;;;;;;18.93;14.37;;;18.30;99.90;;;;;;5080460;28;20324;-84
2021/07/03 06:57:42;;;;;;;16.70;13.20;;;18.30;99.90;;;;;;5108454;27;20219;-84
2021/07/03 07:00:12;;;;;;;15.70;12.80;;;18.40;99.90;;;;;;5109141;27;20197;-83
2021/07/03 07:02:42;;;;;;;14.77;12.90;;;18.40;99.90;;;;;;5095482;28;20392;-83
2021/07/03 07:05:12;;;;;;;14.93;12.97;;;18.50;99.90;;;;;;5089930;27;20204;-84
2021/07/03 07:07:41;;;;;;;16.13;13.23;;;18.40;99.90;;;;;;5101885;28;20207;-85
2021/07/03 07:10:11;;;;;;;16.33;13.73;;;18.40;99.90;;;;;;5088737;28;20477;-85
2021/07/03 07:12:40;;;;;;;17.00;14.23;;;18.40;99.90;;;;;;5084966;28;20581;-85
2021/07/03 07:15:10;;;;;;;15.70;13.73;;;18.40;99.90;;;;;;5092285;28;20196;-86
2021/07/03 07:17:39;;;;;;;19.17;14.80;;;18.40;99.90;;;;;;5080716;28;20256;-84
2021/07/03 07:20:11;;;;;;;15.80;14.13;;;18.50;99.90;;;;;;5085515;28;20205;-85
2021/07/03 07:22:39;;;;;;;14.93;12.63;;;18.60;99.90;;;;;;5080929;28;20204;-85
2021/07/03 07:25:10;;;;;;;13.50;10.83;;;18.70;99.90;;;;;;5084814;28;20212;-85
2021/07/03 07:27:39;;;;;;;13.77;12.20;;;18.60;99.90;;;;;;5086140;28;20207;-83
2021/07/03 07:30:08;;;;;;;15.77;13.67;;;18.70;99.90;;;;;;5103411;28;20201;-84
2021/07/03 07:32:37;;;;;;;16.90;14.33;;;18.70;99.90;;;;;;5105354;28;20224;-85
2021/07/03 07:35:09;;;;;;;17.20;14.47;;;18.80;99.90;;;;;;5107615;28;20449;-85
2021/07/03 07:37:38;;;;;;;17.13;12.50;;;18.90;99.90;;;;;;5104363;28;20234;-87
2021/07/03 07:40:08;;;;;;;15.77;11.57;;;18.90;99.90;;;;;;5106346;28;20337;-88
2021/07/03 07:42:37;;;;;;;15.33;13.73;;;18.90;99.90;;;;;;5093820;28;20206;-85
2021/07/03 07:45:08;;;;;;;16.30;14.07;;;18.90;99.90;;;;;;5081058;28;20192;-87
2021/07/03 07:47:46;;;;;;;16.20;13.83;;;19.00;99.90;;;;;;5085590;28;20200;-84
2021/07/03 07:50:17;;;;;;;14.00;12.50;;;19.00;99.90;;;;;;5098695;28;20231;-84
2021/07/03 07:52:48;;;;;;;16.03;14.40;;;19.10;99.90;;;;;;5106083;28;20636;-87
2021/07/03 07:55:20;;;;;;;14.33;12.83;;;19.10;99.90;;;;;;5096506;28;20224;-85
2021/07/03 07:57:49;;;;;;;17.20;13.80;;;19.30;99.90;;;;;;5078133;28;20652;-87
2021/07/03 08:00:22;;;;;;;15.20;13.60;;;19.30;99.90;;;;;;5095636;28;20208;-85
2021/07/03 08:02:52;;;;;;;13.30;11.90;;;19.30;99.90;;;;;;5095052;28;20215;-86
2021/07/03 08:05:24;;;;;;;14.40;12.87;;;19.40;99.90;;;;;;5090457;28;20211;-87
2021/07/03 08:07:53;;;;;;;16.33;13.97;;;19.40;99.90;;;;;;5095554;28;20262;-88
2021/07/03 08:10:27;;;;;;;15.20;12.73;;;19.40;99.90;;;;;;5108047;27;21507;-85
2021/07/03 08:12:58;;;;;;;13.53;12.23;;;19.40;99.90;;;;;;5108818;27;20199;-86
2021/07/03 08:15:27;;;;;;;17.40;13.07;;;19.40;99.90;;;;;;5112926;27;20204;-85
2021/07/03 08:17:55;;;;;;;16.83;12.77;;;19.40;99.90;;;;;;5101623;27;20231;-85
2021/07/03 08:20:27;;;;;;;14.90;12.50;;;19.50;99.90;;;;;;5070739;28;20311;-84
2021/07/03 08:22:57;;;;;;;14.77;13.20;;;19.50;99.90;;;;;;5092949;28;20215;-87
2021/07/03 08:25:26;;;;;;;16.63;14.67;;;19.60;99.90;;;;;;5089711;28;20395;-87
2021/07/03 08:27:56;;;;;;;17.20;13.40;;;19.70;99.90;;;;;;5107836;28;20200;-86
2021/07/03 08:30:28;;;;;;;15.87;13.50;;;19.70;99.90;;;;;;5103119;28;20200;-87
2021/07/03 08:33:01;;;;;;;15.17;13.53;;;19.70;99.90;;;;;;5091933;28;20469;-86
2021/07/03 08:35:32;;;;;;;15.30;13.70;;;19.70;99.90;;;;;;5107346;28;20196;-88
2021/07/03 08:38:02;;;;;;;16.17;13.17;;;19.50;99.90;;;;;;5089824;28;20251;-86
2021/07/03 08:40:31;;;;;;;16.20;13.27;;;19.60;99.90;;;;;;5088892;28;20280;-87
2021/07/03 08:43:00;;;;;;;15.23;13.60;;;19.60;99.90;;;;;;5110055;28;20199;-87
2021/07/03 08:45:29;;;;;;;14.67;13.03;;;19.60;99.90;;;;;;5121346;27;20203;-89
2021/07/03 08:47:59;;;;;;;15.60;13.73;;;19.60;99.90;;;;;;5112530;27;20224;-89
2021/07/03 08:50:28;;;;;;;18.87;14.13;;;19.60;99.90;;;;;;5117724;27;20215;-87
2021/07/03 08:53:00;;;;;;;15.77;14.07;;;19.70;99.90;;;;;;5099711;28;20286;-87
2021/07/03 08:55:31;;;;;;;18.70;14.40;;;19.60;99.90;;;;;;5093209;28;20203;-86
2021/07/03 08:58:04;;;;;;;15.67;13.80;;;19.70;99.90;;;;;;5098174;28;20350;-86
2021/07/03 09:00:36;;;;;;;14.30;10.73;;;19.80;99.90;;;;;;5095897;28;20236;-88
2021/07/03 09:03:13;;;;;;;17.27;14.30;;;19.90;99.90;;;;;;5093095;28;20195;-87
2021/07/03 09:05:43;;;;;;;16.00;14.40;;;20.10;99.90;;;;;;5095177;28;20235;-87
2021/07/03 09:08:15;;;;;;;15.23;13.70;;;20.30;99.90;;;;;;5090720;28;20200;-87
2021/07/03 09:10:44;;;;;;;18.67;14.77;;;20.50;99.90;;;;;;5097847;28;20871;-87
2021/07/03 09:13:13;;;;;;;15.93;14.33;;;20.60;99.90;;;;;;5108201;27;20204;-87
2021/07/03 09:15:44;;;;;;;16.33;14.67;;;20.80;99.90;;;;;;5105702;27;20208;-86
2021/07/03 09:18:17;;;;;;;15.37;13.77;;;20.90;99.90;;;;;;5098655;28;20219;-87
2021/07/03 09:20:53;;;;;;;14.97;13.47;;;20.90;99.90;;;;;;5091142;28;20204;-86
2021/07/03 09:23:25;;;;;;;14.55;12.60;;;21.10;99.90;;;;;;5090947;28;20216;-89
2021/07/03 09:25:56;;;;;;;13.90;12.57;;;21.20;99.90;;;;;;5084532;28;20775;-87
2021/07/03 09:28:26;;;;;;;12.95;11.65;;;21.20;99.10;;;;;;5074495;28;20200;-88
2021/07/03 09:31:00;;;;;;;14.83;13.30;;;21.10;99.70;;;;;;5098505;28;20204;-85
2021/07/03 09:33:31;;;;;;;14.75;12.32;;;21.10;98.60;;;;;;5095928;27;20213;-84
2021/07/03 09:36:01;;;;;;;13.57;12.13;;;21.10;98.10;;;;;;5106497;28;20622;-87
2021/07/03 09:38:34;;;;;;;13.35;11.32;;;21.20;99.50;;;;;;5098392;28;20813;-88
2021/07/03 09:41:10;;;;;;;14.50;12.77;;;21.30;99.90;;;;;;5092703;28;20208;-88
2021/07/03 09:43:43;;;;;;;13.52;12.23;;;21.50;97.00;;;;;;5096374;28;20415;-87
2021/07/03 09:46:12;;;;;;;15.77;12.20;;;21.60;97.70;;;;;;5115574;27;20205;-86
2021/07/03 09:48:50;;;;;;;14.73;11.80;;;21.90;98.80;;;;;;5095277;28;20204;-87
2021/07/03 09:51:26;;;;;;;13.20;11.95;;;22.00;95.40;;;;;;5098301;28;20228;-86
2021/07/03 09:53:57;;;;;;;13.48;12.07;;;22.00;94.90;;;;;;5094443;28;20192;-84
2021/07/03 09:56:28;;;;;;;12.82;11.52;;;21.90;94.70;;;;;;5086649;28;20208;-86
2021/07/03 09:58:57;;;;;;;13.45;12.07;;;21.90;95.20;;;;;;5091968;28;21071;-87
2021/07/03 10:01:26;;;;;;;13.48;12.18;;;21.90;96.80;;;;;;5106499;28;20192;-87
2021/07/03 10:04:00;;;;;;;12.70;11.50;;;21.90;96.40;;;;;;5113444;28;20203;-87
2021/07/03 10:06:33;;;;;;;12.77;11.50;;;22.10;95.00;;;;;;5113797;27;20196;-87
2021/07/03 10:09:08;;;;;;;12.55;11.30;;;22.20;94.50;;;;;;5114125;27;20203;-86
2021/07/03 10:11:42;;;;;;;11.50;10.50;;;22.20;95.10;;;;;;5098485;28;20219;-87
2021/07/03 10:14:14;;;;;;;13.02;11.75;;;22.20;97.20;;;;;;5103322;28;20213;-86
2021/07/03 10:16:43;;;;;;;12.23;11.18;;;22.20;94.20;;;;;;5095861;28;20204;-86
2021/07/03 10:19:16;;;;;;;12.43;11.43;;;22.20;94.50;;;;;;5103976;28;20224;-87
2021/07/03 10:21:48;;;;;;;11.77;10.57;;;22.30;94.70;;;;;;5098472;28;20219;-86
2021/07/03 10:24:21;;;;;;;12.88;11.52;;;22.40;95.50;;;;;;5099272;28;20209;-86
2021/07/03 10:26:52;;;;;;;13.57;11.68;;;22.60;94.40;;;;;;5078499;28;20220;-88
2021/07/03 10:29:22;;;;;;;12.48;11.18;;;22.60;93.70;;;;;;5078080;28;20212;-87
2021/07/03 10:31:53;;;;;;;12.75;11.43;;;22.80;93.90;;;;;;5086644;28;20272;-89
2021/07/03 10:34:30;;;;;;;12.70;11.50;;;23.10;92.50;;;;;;5111942;27;20213;-88
2021/07/03 10:37:11;;;;;;;11.90;10.70;;;23.00;92.90;;;;;;5089498;28;20204;-86
2021/07/03 10:39:42;;;;;;;11.57;10.57;;;23.20;92.30;;;;;;5089535;28;20224;-87
2021/07/03 10:42:11;;;;;;;11.48;10.20;;;23.20;92.60;;;;;;5104049;28;20230;-86
2021/07/03 10:44:42;;;;;;;11.48;10.30;;;23.40;92.00;;;;;;5105648;27;20202;-86
2021/07/03 10:47:13;;;;;;;11.77;10.68;;;23.40;92.00;;;;;;5112834;27;20320;-89
2021/07/03 10:49:42;;;;;;;12.35;11.13;;;23.50;91.90;;;;;;5118639;27;20201;-90
2021/07/03 10:52:13;;;;;;;11.90;10.73;;;23.50;91.60;;;;;;5112827;27;20220;-87
2021/07/03 10:54:44;;;;;;;10.95;9.82;;;23.60;91.70;;;;;;5114842;27;20201;-86
2021/07/03 10:57:24;;;;;;;11.07;10.07;;;23.70;91.90;;;;;;5114104;27;20199;-89
2021/07/03 11:00:01;;;;;;;11.18;10.18;;;23.90;91.80;;;;;;5079419;28;20232;-86
2021/07/03 11:02:32;;;;;;;11.85;10.65;;;24.10;90.60;;;;;;5106099;27;20289;-87
2021/07/03 11:05:10;;;;;;;11.13;10.05;;;23.90;90.80;;;;;;5110611;27;20189;-86
2021/07/03 11:07:40;;;;;;;11.15;10.05;;;23.90;91.30;;;;;;5105285;27;20197;-87
2021/07/03 11:10:14;;;;;;;11.55;10.45;;;24.10;91.20;;;;;;5109957;27;20207;-89
2021/07/03 11:12:47;;;;;;;11.07;10.07;;;24.10;91.20;;;;;;5102766;27;20508;-86
2021/07/03 11:15:19;;;;;;;11.57;9.73;;;24.20;91.20;;;;;;5110228;27;20185;-84
2021/07/03 11:17:49;;;;;;;10.52;9.73;;;24.20;91.40;;;;;;5112723;27;20211;-87
2021/07/03 11:20:25;;;;;;;11.23;10.10;;;24.40;91.50;;;;;;5115094;27;20253;-86
2021/07/03 11:22:55;;;;;;;11.38;10.35;;;24.40;90.80;;;;;;5114334;27;20222;-86
2021/07/03 11:25:28;;;;;;;10.88;9.82;;;24.40;90.80;;;;;;5102894;28;20260;-87
2021/07/03 11:28:05;;;;;;;11.00;9.93;;;24.50;90.90;;;;;;5102539;27;20516;-87
2021/07/03 11:30:36;;;;;;;9.80;8.80;;;24.70;90.50;;;;;;5112171;27;20200;-88
2021/07/03 11:33:05;;;;;;;9.65;8.80;;;24.90;90.40;;;;;;5109072;27;20192;-86
2021/07/03 11:35:35;;;;;;;10.93;9.80;;;24.90;90.10;;;;;;5094203;28;20201;-85
2021/07/03 11:38:04;;;;;;;10.95;9.75;;;24.90;90.30;;;;;;5090457;28;20227;-86
2021/07/03 11:40:34;;;;;;;10.63;9.52;;;25.00;90.00;;;;;;5083990;27;20211;-88
2021/07/03 11:43:05;;;;;;;10.75;9.75;;;25.00;89.60;;;;;;5104242;27;20200;-87
2021/07/03 11:45:38;;;;;;;10.38;9.27;;;24.90;90.00;;;;;;5105378;28;20202;-87
2021/07/03 11:48:09;;;;;;;10.18;9.18;;;25.00;89.70;;;;;;5090331;28;20534;-86
2021/07/03 11:50:40;;;;;;;10.10;9.27;;;25.00;89.10;;;;;;5101198;28;20200;-87
2021/07/03 11:53:11;;;;;;;10.45;9.55;;;25.20;89.10;;;;;;5088198;28;20209;-85
2021/07/03 11:55:45;;;;;;;10.07;9.18;;;25.10;88.70;;;;;;5096818;28;20637;-87
2021/07/03 11:58:15;;;;;;;10.68;9.57;;;25.10;89.40;;;;;;5094099;28;20211;-87
2021/07/03 12:00:49;;;;;;;10.88;9.75;;;25.20;89.20;;;;;;5091252;28;20795;-86
2021/07/03 12:03:19;;;;;;;11.07;8.77;;;25.10;88.30;;;;;;5089640;28;20200;-86
2021/07/03 12:05:53;;;;;;;10.98;9.88;;;24.90;89.10;;;;;;5094504;28;20352;-87
2021/07/03 12:08:22;;;;;;;10.80;9.80;;;24.80;89.50;;;;;;5098602;28;20212;-85
2021/07/03 12:10:58;;;;;;;12.38;9.57;;;24.80;89.80;;;;;;5100700;28;20232;-87
2021/07/03 12:13:30;;;;;;;10.52;9.63;;;24.70;89.30;;;;;;5109259;28;21105;-85
2021/07/03 12:16:05;;;;;;;10.70;9.65;;;24.80;89.10;;;;;;5092517;28;20204;-85
2021/07/03 12:18:36;;;;;;;11.02;9.88;;;24.70;89.90;;;;;;5106561;27;20243;-86
2021/07/03 12:21:07;;;;;;;9.98;9.07;;;24.60;90.10;;;;;;5100924;28;20227;-86
2021/07/03 12:23:38;;;;;;;10.98;9.95;;;24.60;90.10;;;;;;5088589;28;20236;-87
2021/07/03 12:26:09;;;;;;;11.05;10.00;;;24.50;89.40;;;;;;5090835;28;20500;-86
2021/07/03 12:28:39;;;;;;;10.82;9.93;;;24.40;90.30;;;;;;5078982;28;20209;-85
2021/07/03 12:31:37;;;;;;;9.38;8.55;;;24.50;90.20;;;;;;5062963;28;20215;-84
2021/07/03 12:34:08;;;;;;;9.82;8.98;;;24.80;90.20;;;;;;5103310;28;20181;-86
2021/07/03 12:36:38;;;;;;;10.50;9.48;;;25.00;88.60;;;;;;5105749;28;20185;-85
2021/07/03 12:39:10;;;;;;;10.30;9.30;;;25.00;88.80;;;;;;5106330;28;20196;-86
2021/07/03 12:41:41;;;;;;;10.82;9.73;;;25.00;88.80;;;;;;5107098;28;20623;-86
2021/07/03 12:44:10;;;;;;;10.05;9.10;;;25.10;88.10;;;;;;5101131;28;20326;-84
2021/07/03 12:46:41;;;;;;;10.15;9.25;;;25.10;88.60;;;;;;5095233;28;20260;-87
2021/07/03 12:49:11;;;;;;;10.77;9.77;;;25.20;89.00;;;;;;5087893;28;20633;-86